Time;durP1;ratioP1;P1;durP2;ratioP2;P2;SDS_P1;SDS_P2;PMS_P1;PMS_P2;Temp;Humidity;BMP_temperature;BMP_pressure;BME280_temperature;BME280_humidity;BME280_pressure;Samples;Min_cycle;Max_cycle;Signal;HPM_P1;HPM_P2
2022/01/24 00:00:14;;;;;;;64.80;39.72;;;;;;;7.01;67.63;103420.69;5092924;28;20024;-66
2022/01/24 00:02:42;;;;;;;61.42;38.40;;;;;;;7.06;67.62;103418.28;5098056;28;20024;-65
2022/01/24 00:05:08;;;;;;;57.28;36.83;;;;;;;7.05;66.91;103424.84;5095775;28;20024;-66
2022/01/24 00:07:34;;;;;;;59.05;38.17;;;;;;;7.06;67.73;103418.28;5100934;28;20124;-66
2022/01/24 00:10:03;;;;;;;60.58;37.80;;;;;;;7.04;67.97;103416.72;5101748;28;20748;-66
2022/01/24 00:15:06;;;;;;;50.88;35.80;;;;;;;6.97;65.25;103413.75;5102246;28;20038;-66
2022/01/24 00:17:38;;;;;;;49.33;34.08;;;;;;;7.02;65.22;103411.34;5092719;28;20032;-66
2022/01/24 00:28:19;;;;;;;55.83;35.10;;;;;;;7.05;64.33;103415.69;5104534;28;20497;-66
2022/01/24 00:30:45;;;;;;;55.13;35.60;;;;;;;7.06;65.07;103414.66;5100158;28;20031;-66
2022/01/24 00:33:10;;;;;;;55.50;36.65;;;;;;;7.05;65.16;103412.94;5096921;28;20475;-66
2022/01/24 00:35:35;;;;;;;52.58;35.67;;;;;;;7.02;64.87;103405.84;5109995;28;20138;-66
2022/01/24 00:38:02;;;;;;;55.40;35.10;;;;;;;7.03;64.71;103403.94;5099219;28;20035;-66
2022/01/24 00:40:33;;;;;;;55.10;35.28;;;;;;;7.00;64.08;103402.41;5097146;28;20035;-66
2022/01/24 00:42:59;;;;;;;51.33;33.60;;;;;;;6.98;64.91;103398.06;5109712;28;20034;-66
2022/01/24 00:45:54;;;;;;;51.65;32.22;;;;;;;6.98;64.06;103404.44;5099725;28;20024;-66
2022/01/24 00:48:30;;;;;;;50.05;32.42;;;;;;;6.98;64.49;103398.91;5096705;28;20024;-66
2022/01/24 00:56:14;;;;;;;45.67;29.73;;;;;;;6.99;63.37;103406.16;5103628;28;20071;-66
2022/01/24 00:58:39;;;;;;;46.47;30.45;;;;;;;6.99;63.42;103403.41;5100239;28;20122;-66
2022/01/24 01:01:05;;;;;;;43.65;29.33;;;;;;;6.99;63.25;103408.06;5103730;28;20024;-66
2022/01/24 01:03:30;;;;;;;41.65;28.63;;;;;;;6.98;63.51;103409.09;5098514;28;20393;-66
2022/01/24 01:06:10;;;;;;;41.75;28.17;;;;;;;6.96;62.28;103409.28;5103195;28;20605;-66
2022/01/24 01:19:39;;;;;;;41.58;28.75;;;;;;;6.95;63.81;103399.25;5100939;28;20051;-66
2022/01/24 01:22:05;;;;;;;43.15;28.95;;;;;;;6.93;62.53;103404.09;5102175;28;20024;-66
2022/01/24 01:24:35;;;;;;;43.53;28.85;;;;;;;6.92;63.12;103399.59;5095157;28;20100;-66
2022/01/24 01:27:07;;;;;;;41.03;27.85;;;;;;;6.89;63.05;103397.16;5100717;28;20034;-66
2022/01/24 01:29:46;;;;;;;43.00;28.17;;;;;;;6.90;63.46;103393.38;5106722;28;20613;-66
2022/01/24 01:32:33;;;;;;;42.60;28.50;;;;;;;6.92;62.81;103388.56;5110019;28;20121;-66
2022/01/24 01:52:16;;;;;;;43.10;27.85;;;;;;;6.89;62.58;103391.66;5096771;28;20031;-65
2022/01/24 01:54:13;;;;;;;41.15;27.15;;;;;;;6.87;62.11;103402.84;5091593;28;20068;-66
2022/01/24 01:56:40;;;;;;;40.08;27.50;;;;;;;6.89;62.58;103398.03;5098724;28;20055;-66
2022/01/24 01:59:05;;;;;;;42.15;27.98;;;;;;;6.86;62.61;103400.25;5093211;28;20032;-66
2022/01/24 02:01:31;;;;;;;41.67;28.58;;;;;;;6.88;63.34;103389.94;5094153;28;20475;-66
2022/01/24 02:03:57;;;;;;;43.50;28.38;;;;;;;6.87;62.65;103401.97;5090459;28;20031;-66
2022/01/24 02:06:23;;;;;;;42.38;27.95;;;;;;;6.86;63.67;103390.06;5094001;28;20544;-66
2022/01/24 02:08:57;;;;;;;38.67;28.27;;;;;;;6.85;64.00;103387.50;5100655;28;20023;-66
2022/01/24 02:11:22;;;;;;;40.97;28.10;;;;;;;6.88;62.61;103387.16;5100443;28;20463;-66
2022/01/24 02:13:48;;;;;;;38.47;27.33;;;;;;;6.85;62.84;103387.50;5099929;28;20043;-66
2022/01/24 02:16:28;;;;;;;44.33;28.92;;;;;;;6.83;62.68;103395.06;5101161;28;20032;-66
2022/01/24 02:19:09;;;;;;;40.85;27.40;;;;;;;6.87;62.87;103380.75;5099843;28;20032;-66
2022/01/24 02:22:40;;;;;;;41.53;27.88;;;;;;;6.89;62.25;103373.19;5110144;28;20770;-66
2022/01/24 02:24:24;;;;;;;41.35;27.48;;;;;;;6.85;62.49;103381.97;5085647;28;20479;-66
2022/01/24 02:26:54;;;;;;;36.25;26.30;;;;;;;6.82;61.95;103379.53;5099039;28;20501;-66
2022/01/24 02:29:32;;;;;;;37.65;26.27;;;;;;;6.82;62.24;103382.28;5101467;28;20039;-66
2022/01/24 02:31:58;;;;;;;38.45;25.80;;;;;;;6.84;62.82;103374.72;5110160;28;20033;-66
2022/01/24 02:34:34;;;;;;;37.17;26.15;;;;;;;6.84;62.92;103378.34;5113986;28;20032;-66
2022/01/24 02:37:04;;;;;;;39.80;26.27;;;;;;;6.83;62.31;103370.22;5100965;28;20027;-66
2022/01/24 02:50:22;;;;;;;32.88;24.52;;;;;;;6.85;61.25;103377.31;5111601;28;20066;-65
2022/01/24 02:52:47;;;;;;;35.47;25.42;;;;;;;6.84;61.51;103374.72;5106317;28;20035;-66
2022/01/24 02:55:13;;;;;;;34.25;25.25;;;;;;;6.83;61.21;103368.31;5106288;28;20504;-66
2022/01/24 02:57:38;;;;;;;37.88;25.85;;;;;;;6.81;61.61;103369.53;5112799;28;20446;-66
2022/01/24 03:00:04;;;;;;;37.67;26.13;;;;;;;6.78;61.66;103370.72;5100916;28;20032;-66
2022/01/24 03:02:29;;;;;;;36.13;25.50;;;;;;;6.79;62.13;103368.81;5097534;28;20035;-66
2022/01/24 03:04:56;;;;;;;38.65;26.67;;;;;;;6.75;62.23;103361.91;5103160;28;20027;-66
2022/01/24 03:07:21;;;;;;;36.60;25.38;;;;;;;6.74;61.64;103363.81;5110470;28;20524;-66
2022/01/24 03:09:49;;;;;;;39.15;26.55;;;;;;;6.69;61.52;103360.69;5109911;28;20032;-65
2022/01/24 03:12:24;;;;;;;39.38;26.02;;;;;;;6.72;61.69;103359.47;5114837;28;20039;-66
2022/01/24 03:14:49;;;;;;;37.10;25.77;;;;;;;6.70;62.45;103359.66;5102819;28;20032;-66
2022/01/24 03:17:15;;;;;;;35.55;25.20;;;;;;;6.70;62.34;103354.13;5110873;28;20039;-66
2022/01/24 03:19:40;;;;;;;35.85;25.45;;;;;;;6.70;62.79;103351.38;5099875;28;20039;-66
2022/01/24 03:22:08;;;;;;;36.85;26.13;;;;;;;6.70;63.28;103356.88;5109152;28;20032;-66
2022/01/24 03:24:33;;;;;;;36.83;25.52;;;;;;;6.71;63.27;103352.22;5095339;28;20161;-66
2022/01/24 03:26:59;;;;;;;37.65;24.83;;;;;;;6.70;63.37;103353.28;5102369;28;20476;-66
2022/01/24 03:29:24;;;;;;;36.45;25.83;;;;;;;6.70;63.39;103348.59;5103096;28;20035;-66
2022/01/24 03:31:49;;;;;;;38.83;24.67;;;;;;;6.73;63.79;103344.66;5099870;28;20027;-66
2022/01/24 03:34:15;;;;;;;36.55;25.85;;;;;;;6.71;63.28;103346.72;5107900;28;20055;-66
2022/01/24 03:36:42;;;;;;;35.30;25.35;;;;;;;6.73;63.34;103348.28;5097690;28;20032;-66
2022/01/24 03:39:08;;;;;;;39.53;25.83;;;;;;;6.70;62.46;103356.03;5099664;28;20058;-66
2022/01/24 03:41:33;;;;;;;38.42;26.60;;;;;;;6.69;62.18;103346.88;5103464;28;20111;-66
2022/01/24 03:44:01;;;;;;;37.08;26.00;;;;;;;6.70;63.27;103354.13;5103083;28;20016;-66
2022/01/24 03:46:28;;;;;;;39.33;27.27;;;;;;;6.74;61.78;103349.16;5100587;28;20023;-66
2022/01/24 03:49:07;;;;;;;40.15;27.52;;;;;;;6.72;62.94;103345.66;5093124;28;20031;-66
2022/01/24 03:51:32;;;;;;;37.22;26.17;;;;;;;6.73;62.45;103352.94;5096377;28;20474;-66
2022/01/24 03:53:57;;;;;;;43.47;27.55;;;;;;;6.73;62.87;103356.56;5102268;28;20107;-66
2022/01/24 03:56:22;;;;;;;40.92;27.23;;;;;;;6.74;62.46;103354.66;5095915;28;20051;-66
2022/01/24 03:58:48;;;;;;;38.00;26.95;;;;;;;6.69;62.59;103352.41;5098734;28;20032;-66
2022/01/24 04:01:13;;;;;;;38.35;27.20;;;;;;;6.73;62.51;103350.19;5102037;28;20035;-66
2022/01/24 04:03:38;;;;;;;41.58;28.92;;;;;;;6.68;62.74;103345.16;5099211;28;20068;-66
2022/01/24 04:06:04;;;;;;;37.33;25.65;;;;;;;6.67;62.50;103351.69;5102607;28;20119;-66
2022/01/24 04:08:30;;;;;;;37.60;27.40;;;;;;;6.68;63.03;103350.69;5096564;28;20023;-66
2022/01/24 04:10:57;;;;;;;41.72;28.35;;;;;;;6.67;62.43;103356.34;5093600;28;20027;-65
2022/01/24 04:13:31;;;;;;;39.50;27.95;;;;;;;6.64;62.04;103349.25;5096308;28;20481;-67
2022/01/24 04:21:20;;;;;;;37.83;27.83;;;;;;;6.61;63.30;103344.09;5102305;28;20418;-66
2022/01/24 04:23:53;;;;;;;41.28;28.40;;;;;;;6.61;63.12;103339.44;5096064;28;20820;-66
2022/01/24 04:26:19;;;;;;;39.58;28.00;;;;;;;6.60;63.65;103337.72;5106094;28;20051;-66
2022/01/24 04:28:44;;;;;;;38.38;27.77;;;;;;;6.60;63.97;103334.97;5097799;28;20035;-66
2022/01/24 04:31:09;;;;;;;42.60;29.00;;;;;;;6.58;63.65;103334.25;5095264;28;20036;-66
2022/01/24 04:33:35;;;;;;;40.55;28.60;;;;;;;6.55;64.01;103336.47;5106434;28;20027;-68
2022/01/24 04:36:00;;;;;;;40.92;28.67;;;;;;;6.58;62.84;103341.66;5098866;28;20027;-66
2022/01/24 04:38:26;;;;;;;39.47;28.73;;;;;;;6.56;62.96;103344.59;5104988;28;20119;-66
2022/01/24 04:40:57;;;;;;;43.88;28.67;;;;;;;6.53;63.46;103350.44;5106691;28;20042;-66
2022/01/24 04:46:04;;;;;;;40.92;28.67;;;;;;;6.57;63.15;103346.31;5099576;28;20538;-66
2022/01/24 04:50:37;;;;;;;43.07;28.77;;;;;;;6.57;62.85;103346.31;5097781;28;20397;-67
2022/01/24 04:51:51;;;;;;;43.15;28.17;;;;;;;6.58;62.69;103350.81;5099510;28;20694;-66
2022/01/24 04:56:54;;;;;;;41.00;28.42;;;;;;;6.57;61.88;103353.75;5107662;28;20052;-66
2022/01/24 04:59:19;;;;;;;40.67;28.25;;;;;;;6.55;62.77;103353.03;5091183;28;20037;-66
2022/01/24 05:01:44;;;;;;;42.17;28.83;;;;;;;6.53;62.06;103363.38;5099955;28;20023;-66
2022/01/24 05:04:09;;;;;;;39.33;29.00;;;;;;;6.51;62.39;103352.47;5098539;28;20024;-66
2022/01/24 05:06:35;;;;;;;41.55;28.55;;;;;;;6.51;62.34;103352.47;5096355;28;20485;-66
2022/01/24 05:09:00;;;;;;;40.33;27.45;;;;;;;6.52;62.77;103353.34;5094835;28;20032;-66
2022/01/24 05:11:51;;;;;;;40.08;27.60;;;;;;;6.49;61.35;103357.31;5096367;28;20114;-66
2022/01/24 05:25:13;;;;;;;38.60;26.27;;;;;;;6.51;62.34;103352.47;5099280;28;20444;-66
2022/01/24 05:27:39;;;;;;;40.53;28.42;;;;;;;6.49;61.88;103356.47;5097331;28;20023;-65
2022/01/24 05:30:05;;;;;;;43.65;31.05;;;;;;;6.49;61.86;103353.69;5100517;28;20085;-66
2022/01/24 05:32:30;;;;;;;41.33;29.48;;;;;;;6.52;62.09;103345.06;5096562;28;20019;-66
2022/01/24 05:34:56;;;;;;;41.63;29.05;;;;;;;6.47;61.42;103356.59;5093612;28;20038;-66
2022/01/24 05:37:21;;;;;;;38.70;26.80;;;;;;;6.44;61.52;103342.28;5094921;28;20028;-66
2022/01/24 05:39:46;;;;;;;40.75;27.15;;;;;;;6.40;61.50;103338.97;5098306;28;20038;-66
2022/01/24 05:42:11;;;;;;;39.55;27.73;;;;;;;6.40;61.93;103347.25;5103881;28;20062;-66
2022/01/24 05:44:37;;;;;;;39.88;27.92;;;;;;;6.41;62.51;103337.09;5098389;28;20073;-66
2022/01/24 05:47:02;;;;;;;41.25;26.95;;;;;;;6.44;61.44;103336.75;5091441;28;20040;-66
2022/01/24 05:49:28;;;;;;;39.95;26.92;;;;;;;6.43;61.77;103346.06;5093926;28;20430;-66
2022/01/24 05:51:53;;;;;;;40.67;27.52;;;;;;;6.42;62.45;103352.63;5106327;28;20119;-66
2022/01/24 05:54:18;;;;;;;40.95;27.13;;;;;;;6.42;61.71;103353.47;5107760;28;20023;-66
2022/01/24 05:56:43;;;;;;;38.10;26.13;;;;;;;6.41;61.71;103350.91;5097483;28;20050;-66
2022/01/24 05:59:10;;;;;;;37.67;25.45;;;;;;;6.44;61.48;103345.88;5092664;28;20046;-66
2022/01/24 06:01:35;;;;;;;38.65;26.55;;;;;;;6.41;61.65;103350.91;5098034;28;20027;-66
2022/01/24 06:04:00;;;;;;;37.22;26.33;;;;;;;6.41;62.20;103354.53;5102939;28;20035;-67
2022/01/24 06:06:26;;;;;;;37.85;27.20;;;;;;;6.40;61.41;103352.78;5095362;28;20478;-66
2022/01/24 06:08:51;;;;;;;36.97;26.98;;;;;;;6.38;61.97;103352.09;5098189;28;20077;-66
2022/01/24 06:11:17;;;;;;;38.92;27.23;;;;;;;6.41;62.19;103356.41;5104512;28;20035;-65
2022/01/24 06:13:45;;;;;;;41.10;26.13;;;;;;;6.39;61.88;103354.66;5092412;28;20028;-65
2022/01/24 06:16:10;;;;;;;40.33;26.45;;;;;;;6.39;62.69;103356.56;5094634;28;20028;-66
2022/01/24 06:18:35;;;;;;;39.47;26.83;;;;;;;6.37;62.61;103353.97;5105107;28;20035;-66
2022/01/24 06:21:01;;;;;;;37.22;25.55;;;;;;;6.38;61.51;103341.91;5104718;28;20028;-66
2022/01/24 06:23:26;;;;;;;37.67;25.70;;;;;;;6.35;61.87;103341.38;5101220;28;20403;-68
2022/01/24 06:25:51;;;;;;;41.50;26.83;;;;;;;6.30;61.49;103346.53;5105396;28;20035;-66
2022/01/24 06:28:17;;;;;;;37.30;26.38;;;;;;;6.30;61.22;103352.03;5102651;28;20027;-66
2022/01/24 06:30:44;;;;;;;36.13;25.00;;;;;;;6.33;61.42;103357.25;5096640;28;20031;-66
2022/01/24 06:33:09;;;;;;;38.85;25.38;;;;;;;6.32;61.11;103355.47;5113562;28;20650;-66
2022/01/24 06:35:35;;;;;;;36.25;24.80;;;;;;;6.29;61.73;103353.06;5108329;28;20030;-66
2022/01/24 06:38:00;;;;;;;38.38;26.17;;;;;;;6.26;61.93;103350.66;5102321;28;20030;-66
2022/01/24 06:40:25;;;;;;;36.22;24.35;;;;;;;6.26;61.31;103347.88;5109164;28;20036;-66
2022/01/24 06:42:51;;;;;;;34.05;23.88;;;;;;;6.26;61.71;103347.88;5098425;28;20061;-66
2022/01/24 06:45:16;;;;;;;36.72;24.85;;;;;;;6.24;61.14;103358.19;5092797;28;20159;-65
2022/01/24 06:47:42;;;;;;;35.03;23.45;;;;;;;6.25;61.44;103357.16;5102349;28;20023;-67
2022/01/24 06:50:08;;;;;;;35.95;23.15;;;;;;;6.31;61.73;103353.75;5103942;28;20501;-64
2022/01/24 06:52:33;;;;;;;36.83;23.65;;;;;;;6.26;61.83;103367.19;5092386;28;20502;-64
2022/01/24 06:54:58;;;;;;;36.85;25.33;;;;;;;6.28;61.69;103362.34;5103902;28;20044;-64
2022/01/24 06:57:24;;;;;;;36.88;23.13;;;;;;;6.29;62.09;103369.63;5104945;27;20039;-64
2022/01/24 06:59:49;;;;;;;36.53;24.17;;;;;;;6.27;62.57;103371.66;5100693;27;20035;-64
2022/01/24 07:02:16;;;;;;;32.97;23.10;;;;;;;6.30;62.29;103365.84;5103717;27;20047;-65
2022/01/24 07:04:43;;;;;;;36.97;24.10;;;;;;;6.29;61.93;103367.72;5114241;27;20494;-65
2022/01/24 07:07:10;;;;;;;36.20;25.55;;;;;;;6.24;61.91;103366.47;5098380;27;20063;-64
2022/01/24 07:09:36;;;;;;;36.58;24.95;;;;;;;6.28;61.61;103365.97;5120713;27;20106;-65
2022/01/24 07:12:03;;;;;;;36.50;24.02;;;;;;;6.29;61.26;103372.38;5118887;27;20038;-64
2022/01/24 07:14:28;;;;;;;34.38;23.23;;;;;;;6.26;61.51;103370.81;5116311;27;20046;-65
2022/01/24 07:19:23;;;;;;;39.17;23.52;;;;;;;6.26;61.87;103375.47;5112132;27;20535;-63
2022/01/24 07:21:49;;;;;;;38.15;26.20;;;;;;;6.22;62.05;103379.56;5103946;27;20034;-63
2022/01/24 07:24:14;;;;;;;36.42;24.77;;;;;;;6.19;61.53;103379.91;5115360;27;20031;-63
2022/01/24 07:26:40;;;;;;;35.75;26.58;;;;;;;6.17;62.01;103382.81;5103238;28;20043;-63
2022/01/24 07:29:05;;;;;;;35.45;25.17;;;;;;;6.16;61.78;103386.59;5106767;27;20043;-64
2022/01/24 07:31:30;;;;;;;37.90;24.92;;;;;;;6.14;61.55;103378.50;5114151;27;20031;-64
2022/01/24 07:33:56;;;;;;;37.47;22.55;;;;;;;6.11;61.98;103383.47;5104186;27;20036;-64
2022/01/24 07:36:23;;;;;;;35.13;23.83;;;;;;;6.14;61.87;103383.16;5117598;27;20039;-63
2022/01/24 07:38:48;;;;;;;36.60;24.85;;;;;;;6.11;62.13;103377.94;5111832;27;20092;-64
2022/01/24 07:41:16;;;;;;;34.72;23.20;;;;;;;6.18;61.91;103380.94;5100139;27;20040;-64
2022/01/24 07:43:42;;;;;;;42.25;26.90;;;;;;;6.32;62.22;103381.16;5099850;27;20027;-64
2022/01/24 07:46:07;;;;;;;35.75;22.58;;;;;;;6.43;63.10;103377.28;5111119;27;20471;-64
2022/01/24 07:48:32;;;;;;;35.35;25.38;;;;;;;6.33;62.12;103382.94;5108217;27;20032;-64
2022/01/24 07:50:58;;;;;;;36.33;24.17;;;;;;;6.30;61.57;103376.88;5106914;27;20043;-65
2022/01/24 07:53:24;;;;;;;36.58;24.17;;;;;;;6.27;61.94;103383.56;5105807;27;20081;-63
2022/01/24 07:55:50;;;;;;;37.60;24.23;;;;;;;6.24;61.50;103391.28;5101991;27;20119;-64
2022/01/24 07:58:16;;;;;;;37.65;24.85;;;;;;;6.20;62.00;103395.41;5104357;28;20115;-63
2022/01/24 08:00:41;;;;;;;36.40;25.00;;;;;;;6.22;61.78;103401.63;5108874;28;20079;-62
2022/01/24 08:03:07;;;;;;;40.65;24.90;;;;;;;6.16;61.36;103403.13;5110607;28;20027;-63
2022/01/24 08:05:33;;;;;;;38.75;24.85;;;;;;;6.14;61.71;103405.19;5109681;28;20031;-60
2022/01/24 08:07:58;;;;;;;36.03;23.45;;;;;;;6.15;61.49;103404.16;5109785;28;20040;-61
2022/01/24 08:10:24;;;;;;;40.90;24.20;;;;;;;6.18;61.69;103411.25;5105656;27;20091;-64
2022/01/24 08:12:49;;;;;;;39.63;24.40;;;;;;;6.17;62.54;103415.03;5110920;27;20110;-64
2022/01/24 08:15:15;;;;;;;38.20;25.75;;;;;;;6.20;61.81;103417.47;5104186;28;20023;-63
2022/01/24 08:17:42;;;;;;;38.42;26.08;;;;;;;6.15;61.83;103415.19;5110924;28;20130;-65
2022/01/24 08:20:09;;;;;;;37.25;24.48;;;;;;;6.13;61.83;103411.72;5101710;28;20554;-64
2022/01/24 08:22:34;;;;;;;40.28;26.38;;;;;;;6.19;61.45;103415.75;5106755;28;20130;-65
2022/01/24 08:25:03;;;;;;;44.05;26.85;;;;;;;6.15;62.19;103415.19;5101595;28;20111;-64
2022/01/24 08:27:29;;;;;;;39.55;27.05;;;;;;;6.22;61.14;103410.78;5107248;28;20063;-64
2022/01/24 08:29:54;;;;;;;42.28;27.58;;;;;;;6.20;61.11;103414.72;5100633;28;20063;-64
2022/01/24 08:32:19;;;;;;;42.67;28.70;;;;;;;6.22;60.90;103418.19;5102492;28;20077;-64
2022/01/24 08:34:45;;;;;;;43.38;28.98;;;;;;;6.16;61.11;103419.69;5098827;28;20486;-66
2022/01/24 08:37:11;;;;;;;55.22;36.90;;;;;;;6.15;61.07;103418.81;5102239;28;20047;-64
2022/01/24 08:39:37;;;;;;;47.28;30.23;;;;;;;6.12;61.00;103418.28;5094777;28;20102;-63
2022/01/24 08:42:14;;;;;;;60.40;39.83;;;;;;;6.09;60.59;103416.72;5100635;28;20156;-63
2022/01/24 08:47:24;;;;;;;48.70;31.10;;;;;;;6.11;61.17;103425.69;5103418;28;20075;-64
2022/01/24 08:49:49;;;;;;;41.53;28.38;;;;;;;6.14;60.76;103422.59;5094565;28;20035;-65
2022/01/24 08:52:15;;;;;;;44.50;29.95;;;;;;;6.16;60.82;103419.69;5094666;28;20616;-65
2022/01/24 08:54:40;;;;;;;40.90;29.98;;;;;;;6.14;60.91;103414.34;5094718;28;20066;-64
2022/01/24 08:57:05;;;;;;;43.63;30.60;;;;;;;6.17;60.95;103421.44;5099462;28;20492;-65
2022/01/24 08:59:32;;;;;;;45.83;30.13;;;;;;;6.13;61.18;103426.41;5099050;28;20024;-64
2022/01/24 09:01:57;;;;;;;42.30;28.85;;;;;;;6.18;60.85;103419.53;5109371;28;20535;-64
2022/01/24 09:04:22;;;;;;;38.30;26.85;;;;;;;6.15;60.50;103426.22;5103189;28;20160;-62
2022/01/24 09:06:48;;;;;;;41.53;27.38;;;;;;;6.19;60.18;103421.25;5096366;28;20120;-63
2022/01/24 09:09:15;;;;;;;40.80;28.35;;;;;;;6.14;60.64;103419.84;5100151;28;20039;-66
2022/01/24 09:11:40;;;;;;;42.92;29.58;;;;;;;6.13;60.20;103431.91;5110590;28;20027;-64
2022/01/24 09:14:07;;;;;;;42.47;29.70;;;;;;;6.12;60.38;103424.66;5101560;28;20111;-64
2022/01/24 09:16:33;;;;;;;43.92;29.13;;;;;;;6.12;61.08;103426.53;5099925;28;20522;-64
2022/01/24 09:18:59;;;;;;;86.75;49.55;;;;;;;6.19;60.84;103426.78;5104114;28;20034;-64
2022/01/24 09:21:27;;;;;;;69.38;41.00;;;;;;;6.18;60.43;103433.31;5108050;28;20395;-64
2022/01/24 09:23:52;;;;;;;54.88;34.05;;;;;;;6.15;60.49;103432.59;5093535;28;20032;-64
2022/01/24 09:26:18;;;;;;;42.72;29.00;;;;;;;6.14;60.46;103430.03;5109516;28;20387;-64
2022/01/24 09:28:43;;;;;;;43.42;27.77;;;;;;;6.17;60.88;103437.09;5100801;28;20081;-65
2022/01/24 09:31:09;;;;;;;43.22;27.88;;;;;;;6.12;61.18;103426.53;5098908;28;20032;-61
2022/01/24 09:33:34;;;;;;;44.55;28.98;;;;;;;6.11;60.60;103427.56;5109550;28;20040;-61
2022/01/24 09:36:00;;;;;;;44.97;28.67;;;;;;;6.06;61.45;103428.06;5103961;28;20031;-63
2022/01/24 09:38:29;;;;;;;42.85;30.02;;;;;;;6.18;62.62;103425.06;5106077;28;20031;-63
2022/01/24 09:40:56;;;;;;;40.33;28.65;;;;;;;6.30;61.47;103432.03;5100628;28;20107;-63
2022/01/24 09:43:21;;;;;;;43.00;27.45;;;;;;;6.23;60.67;103426.28;5098392;28;20083;-63
2022/01/24 09:45:47;;;;;;;37.90;26.27;;;;;;;6.26;60.77;103422.34;5101649;28;20036;-62
2022/01/24 09:48:13;;;;;;;36.08;23.73;;;;;;;6.44;68.83;103428.66;5098499;28;20036;-62
2022/01/24 09:50:38;;;;;;;39.97;26.02;;;;;;;6.32;60.95;103421.69;5104126;28;20099;-63
2022/01/24 09:53:04;;;;;;;39.72;27.30;;;;;;;6.30;60.22;103426.50;5108739;28;20027;-64
2022/01/24 09:55:29;;;;;;;39.67;26.90;;;;;;;6.27;60.45;103424.94;5094930;28;20837;-64
2022/01/24 09:57:55;;;;;;;36.10;25.27;;;;;;;6.25;60.69;103426.13;5107824;28;20118;-63
2022/01/24 10:00:24;;;;;;;39.47;25.95;;;;;;;6.22;60.56;103413.53;5108464;28;20039;-63
2022/01/24 10:02:51;;;;;;;37.85;25.60;;;;;;;6.26;60.34;103425.09;5104489;28;20387;-64
2022/01/24 10:05:51;;;;;;;38.63;25.15;;;;;;;6.33;61.18;103423.44;5098808;28;20465;-63
2022/01/24 10:08:16;;;;;;;37.70;25.70;;;;;;;6.23;60.16;103422.66;5088134;28;20051;-63
2022/01/24 10:10:46;;;;;;;42.40;25.88;;;;;;;6.23;59.42;103426.28;5090460;28;20032;-63
2022/01/24 10:16:24;;;;;;;37.45;24.08;;;;;;;6.32;59.37;103427.19;5102985;28;20689;-63
2022/01/24 10:18:57;;;;;;;38.78;24.05;;;;;;;6.32;59.31;103413.41;5092525;28;20030;-63
2022/01/24 10:21:22;;;;;;;39.03;25.15;;;;;;;6.34;59.21;103416.88;5109767;28;20023;-63
2022/01/24 10:23:48;;;;;;;37.60;24.63;;;;;;;6.35;59.90;103413.94;5096799;28;20026;-63
2022/01/24 10:26:13;;;;;;;36.22;24.13;;;;;;;6.32;59.27;103419.78;5105526;28;20036;-63
2022/01/24 10:28:43;;;;;;;38.80;25.92;;;;;;;6.26;59.95;103423.22;5106318;28;20168;-63
2022/01/24 10:31:25;;;;;;;37.20;25.58;;;;;;;6.38;61.06;103429.31;5104031;28;20034;-63
2022/01/24 10:34:12;;;;;;;35.88;24.70;;;;;;;6.36;60.08;103420.34;5102322;28;20187;-63
2022/01/24 10:36:43;;;;;;;34.30;22.90;;;;;;;6.35;60.52;103421.38;5108173;28;20046;-63
2022/01/24 10:39:18;;;;;;;35.72;23.27;;;;;;;6.34;59.88;103417.75;5106008;28;20028;-63
2022/01/24 10:41:58;;;;;;;33.72;22.95;;;;;;;6.30;59.61;103409.97;5099074;28;20030;-64
2022/01/24 10:44:32;;;;;;;33.13;21.83;;;;;;;6.29;60.61;103416.50;5103169;27;20471;-63
2022/01/24 10:47:12;;;;;;;35.83;23.50;;;;;;;6.31;60.43;103406.16;5099801;28;20041;-64
2022/01/24 10:49:38;;;;;;;34.65;22.85;;;;;;;6.27;59.79;103404.75;5109975;28;20028;-63
2022/01/24 10:52:31;;;;;;;35.17;22.95;;;;;;;6.34;60.85;103401.19;5108470;28;20050;-64
2022/01/24 10:55:29;;;;;;;34.33;22.88;;;;;;;6.39;60.89;103400.69;5101888;28;20043;-63
2022/01/24 10:58:05;;;;;;;33.53;21.98;;;;;;;6.32;60.58;103399.63;5076691;28;20040;-64
2022/01/24 11:00:31;;;;;;;33.05;22.40;;;;;;;6.32;60.57;103394.97;5095595;28;20027;-64
2022/01/24 11:03:02;;;;;;;33.72;22.00;;;;;;;6.29;60.85;103398.06;5103354;28;20024;-61
2022/01/24 11:05:30;;;;;;;33.42;22.15;;;;;;;6.30;60.12;103398.94;5100730;28;20034;-62
2022/01/24 11:07:58;;;;;;;27.75;17.00;;;;;;;6.61;72.00;103391.00;5107447;28;20024;-62
2022/01/24 11:10:26;;;;;;;32.55;21.33;;;;;;;6.46;60.85;103398.16;5113634;28;20443;-62
2022/01/24 11:12:52;;;;;;;34.97;22.17;;;;;;;6.44;60.68;103395.56;5103429;28;20020;-62
2022/01/24 11:15:19;;;;;;;34.63;21.85;;;;;;;6.37;59.51;103394.50;5106216;28;20472;-64
2022/01/24 11:17:44;;;;;;;37.45;24.10;;;;;;;6.40;60.33;103402.44;5108088;28;20463;-63
2022/01/24 11:20:14;;;;;;;30.20;18.38;;;;;;;6.64;68.09;103390.66;5108387;28;20039;-63
2022/01/24 11:22:44;;;;;;;38.00;23.13;;;;;;;6.50;60.38;103400.44;5099770;28;20028;-63
2022/01/24 11:25:11;;;;;;;30.88;21.38;;;;;;;6.48;59.78;103385.06;5110414;28;20540;-63
2022/01/24 11:27:39;;;;;;;33.55;21.85;;;;;;;6.43;59.60;103393.81;5097952;28;20036;-64
2022/01/24 11:30:08;;;;;;;33.95;21.65;;;;;;;6.39;59.59;103392.44;5114420;28;20069;-64
2022/01/24 11:32:38;;;;;;;36.35;22.90;;;;;;;6.39;60.22;103386.91;5105495;28;20031;-64
2022/01/24 11:35:04;;;;;;;35.40;23.40;;;;;;;6.39;59.56;103381.38;5106478;28;20790;-62
2022/01/24 11:37:38;;;;;;;34.25;22.23;;;;;;;6.38;59.44;103382.44;5103482;28;20035;-63
2022/01/24 11:40:05;;;;;;;33.10;22.02;;;;;;;6.32;59.23;103383.06;5094224;28;20032;-63
2022/01/24 11:42:34;;;;;;;34.17;23.20;;;;;;;6.32;59.85;103389.44;5108829;28;21305;-63
2022/01/24 11:45:05;;;;;;;35.97;23.00;;;;;;;6.29;59.67;103394.44;5099028;28;20028;-63
2022/01/24 11:47:34;;;;;;;34.58;22.08;;;;;;;6.31;59.70;103392.38;5104968;28;20032;-65
2022/01/24 11:50:19;;;;;;;33.53;21.55;;;;;;;6.25;59.62;103390.25;5110275;28;20467;-66
2022/01/24 11:52:44;;;;;;;33.15;22.77;;;;;;;6.28;59.77;103387.19;5099692;28;20059;-66
2022/01/24 11:57:46;;;;;;;34.42;22.02;;;;;;;6.29;59.24;103380.66;5109226;28;20126;-66
2022/01/24 12:00:12;;;;;;;35.78;22.05;;;;;;;6.25;59.06;103379.22;5109373;28;20062;-67
2022/01/24 12:02:55;;;;;;;34.58;22.25;;;;;;;6.34;60.00;103373.63;5109275;28;20059;-68
2022/01/24 12:05:23;;;;;;;35.13;22.55;;;;;;;6.26;59.30;103369.94;5096466;28;20142;-66
2022/01/24 12:07:48;;;;;;;39.85;23.88;;;;;;;6.27;59.60;103352.38;5098921;28;20082;-68
2022/01/24 12:13:04;;;;;;;36.83;24.25;;;;;;;6.27;59.19;103355.97;5102113;28;20111;-68
2022/01/24 12:15:39;;;;;;;35.83;23.50;;;;;;;6.31;59.48;103359.28;5108838;28;20035;-67
2022/01/24 12:18:08;;;;;;;36.72;23.50;;;;;;;6.30;59.76;103355.66;5101271;28;20035;-67
2022/01/24 12:20:36;;;;;;;41.25;25.88;;;;;;;6.34;59.73;103354.31;5110469;28;20387;-66
2022/01/24 12:23:16;;;;;;;37.78;24.63;;;;;;;6.37;60.36;103355.88;5097609;28;20119;-69
2022/01/24 12:25:54;;;;;;;36.67;23.85;;;;;;;6.35;59.34;103350.50;5097541;28;20101;-69
2022/01/24 12:28:23;;;;;;;35.85;23.33;;;;;;;6.35;59.25;103357.94;5104888;28;20031;-67
2022/01/24 12:31:08;;;;;;;36.50;23.33;;;;;;;6.38;59.59;103346.56;5108456;28;20049;-67
2022/01/24 12:33:39;;;;;;;37.55;23.33;;;;;;;6.40;59.70;103347.25;5095638;28;20028;-67
2022/01/24 12:36:13;;;;;;;38.03;25.73;;;;;;;6.38;58.90;103344.66;5103575;28;20470;-66
2022/01/24 12:38:50;;;;;;;35.75;24.10;;;;;;;6.49;60.05;103350.94;5093126;28;20024;-69
2022/01/24 12:41:22;;;;;;;35.97;23.92;;;;;;;6.48;60.08;103341.78;5095826;28;20180;-68
2022/01/24 12:46:40;;;;;;;37.53;22.77;;;;;;;6.54;59.28;103338.38;5079929;28;20502;-66
2022/01/24 12:49:07;;;;;;;36.53;24.95;;;;;;;6.58;59.02;103344.41;5104896;28;20024;-66
2022/01/24 12:51:37;;;;;;;40.08;24.85;;;;;;;6.55;59.26;103336.47;5111793;28;20383;-67
2022/01/24 12:54:04;;;;;;;36.88;24.90;;;;;;;6.53;59.37;103333.03;5100767;28;20020;-66